Flaxcombe, Canada
Current Conditions -  °F | °C
As of 11:00 AM on Tuesday 21 Oct 2014 (Local Time) from CYKY Reporting Station
Broken Clouds Broken Clouds  
Wind Chill: 57°   Ceiling: 24000
Heat Index: 57°   Visibility: 15mi
Dew Point: 37°   Wind: 3mph
Humidity: 48%   Direction: 290°WNW
Pressure: 29.57"   Gusts: NA
Location:  51.47°N, 109.6°W
Report Text: CYKY 211700Z 29003KT 15SM SCT050 SCT090 BKN240 14/03 A2957 RMK SC3AC1CI2 SLP022 DENSITY ALT 3100FT
Loading
Personal Weather Stations






























Interactive Weather Map
Tropical Storm Tracking
New forecast layout! Learn more

10-Day Weather Forecast

Advertisements
Track Severe Weather on mobile